Time;durP1;ratioP1;P1;durP2;ratioP2;P2;SDS_P1;SDS_P2;PMS_P1;PMS_P2;Temp;Humidity;BMP_temperature;BMP_pressure;BME280_temperature;BME280_humidity;BME280_pressure;Samples;Min_cycle;Max_cycle;Signal;HPM_P1;HPM_P2
2023/12/12 00:00:30;;;;;;;29.55;12.75;;;5.00;99.90;;;;;;4986663;28;20085;-90
2023/12/12 00:03:00;;;;;;;27.80;11.77;;;5.00;99.90;;;;;;4994756;28;20424;-90
2023/12/12 00:05:25;;;;;;;24.55;10.77;;;5.00;99.90;;;;;;4979333;28;20057;-91
2023/12/12 00:07:55;;;;;;;25.02;12.10;;;5.00;99.90;;;;;;4978873;28;20066;-90
2023/12/12 00:10:21;;;;;;;21.80;10.80;;;5.10;99.90;;;;;;4989402;28;20050;-90
2023/12/12 00:12:47;;;;;;;25.85;11.13;;;5.10;99.90;;;;;;4982041;28;20044;-90
2023/12/12 00:15:13;;;;;;;19.52;9.70;;;5.10;99.90;;;;;;4997733;28;20030;-90
2023/12/12 00:17:39;;;;;;;20.77;8.85;;;5.10;99.90;;;;;;4997255;28;20494;-90
2023/12/12 00:20:09;;;;;;;22.42;6.90;;;5.20;99.90;;;;;;4997117;28;20022;-91
2023/12/12 00:22:36;;;;;;;17.50;8.47;;;5.20;99.90;;;;;;4996784;28;20391;-91
2023/12/12 00:25:03;;;;;;;23.42;7.15;;;5.20;99.90;;;;;;4998151;28;20022;-90
2023/12/12 00:27:29;;;;;;;26.30;12.18;;;5.30;99.90;;;;;;4998612;28;20496;-90
2023/12/12 00:29:55;;;;;;;39.20;15.07;;;5.30;99.90;;;;;;4998374;28;20026;-90
2023/12/12 00:32:21;;;;;;;32.78;15.85;;;5.30;99.90;;;;;;5000473;28;20018;-90
2023/12/12 00:34:46;;;;;;;38.88;16.65;;;5.30;99.90;;;;;;5002971;28;20021;-90
2023/12/12 00:37:12;;;;;;;35.45;16.92;;;5.30;99.90;;;;;;5001685;28;20479;-89
2023/12/12 00:39:41;;;;;;;36.53;16.10;;;5.20;99.90;;;;;;5001357;28;20026;-89
2023/12/12 00:42:08;;;;;;;32.13;14.90;;;5.30;99.90;;;;;;5000724;28;20495;-89
2023/12/12 00:44:34;;;;;;;32.47;14.63;;;5.30;99.90;;;;;;5002383;28;20034;-90
2023/12/12 00:47:00;;;;;;;30.83;14.45;;;5.30;99.90;;;;;;4998121;28;20034;-90
2023/12/12 00:49:26;;;;;;;36.70;15.85;;;5.30;99.90;;;;;;4998236;28;20053;-90
2023/12/12 00:51:53;;;;;;;30.90;14.15;;;5.30;99.90;;;;;;4998065;28;20430;-90
2023/12/12 00:54:18;;;;;;;28.05;12.10;;;5.30;99.90;;;;;;4997418;28;20033;-90
2023/12/12 00:56:46;;;;;;;28.25;11.05;;;5.30;99.90;;;;;;4978402;28;20047;-89
2023/12/12 00:59:12;;;;;;;33.80;14.27;;;5.30;99.90;;;;;;4993685;28;20022;-90
2023/12/12 01:01:38;;;;;;;36.55;14.93;;;5.20;99.90;;;;;;4997561;28;20057;-89
2023/12/12 01:04:04;;;;;;;29.13;13.57;;;5.30;99.90;;;;;;4997544;28;20034;-89
2023/12/12 01:06:30;;;;;;;26.55;13.52;;;5.20;99.90;;;;;;4997565;28;20089;-90
2023/12/12 01:08:55;;;;;;;27.85;14.60;;;5.20;99.90;;;;;;4997351;28;20018;-90
2023/12/12 01:11:21;;;;;;;25.65;12.68;;;5.20;99.90;;;;;;4978928;28;20058;-90
2023/12/12 01:13:48;;;;;;;32.40;13.18;;;5.20;99.90;;;;;;4977573;28;20030;-91
2023/12/12 01:16:14;;;;;;;27.58;13.45;;;5.20;99.90;;;;;;4977694;28;20412;-90
2023/12/12 01:18:39;;;;;;;23.63;12.23;;;5.20;99.90;;;;;;4977668;28;20435;-90
2023/12/12 01:21:06;;;;;;;17.55;9.95;;;5.20;99.90;;;;;;4995021;28;20033;-90
2023/12/12 01:23:48;;;;;;;23.17;10.80;;;5.30;99.90;;;;;;4977541;28;20085;-90
2023/12/12 01:26:14;;;;;;;35.35;11.82;;;5.30;99.90;;;;;;4977453;28;20061;-90
2023/12/12 01:28:39;;;;;;;24.52;12.10;;;5.30;99.90;;;;;;4977211;28;20034;-89
2023/12/12 01:31:05;;;;;;;29.92;10.43;;;5.30;99.90;;;;;;4994673;28;20096;-89
2023/12/12 01:33:31;;;;;;;32.63;12.75;;;5.40;99.90;;;;;;4977470;28;20030;-89
2023/12/12 01:35:56;;;;;;;33.80;12.45;;;5.50;99.90;;;;;;4977562;28;20039;-90
2023/12/12 01:38:22;;;;;;;40.80;13.60;;;5.50;99.90;;;;;;4977142;28;20022;-89
2023/12/12 01:40:48;;;;;;;44.45;14.50;;;5.60;99.90;;;;;;4976724;28;20038;-89
2023/12/12 01:43:25;;;;;;;36.97;14.07;;;5.70;99.90;;;;;;4972004;28;20026;-90
2023/12/12 01:46:04;;;;;;;40.83;17.08;;;5.70;99.90;;;;;;4976620;28;20383;-89
2023/12/12 01:48:31;;;;;;;46.15;15.20;;;5.70;99.90;;;;;;4976652;28;20026;-89
2023/12/12 01:50:57;;;;;;;43.63;15.35;;;5.80;99.90;;;;;;4976680;28;20479;-89
2023/12/12 01:53:27;;;;;;;42.72;17.27;;;5.80;99.90;;;;;;4976094;28;20033;-89
2023/12/12 01:55:55;;;;;;;34.97;15.05;;;5.90;99.90;;;;;;4974221;28;20057;-89
2023/12/12 01:58:21;;;;;;;42.50;16.38;;;5.90;99.90;;;;;;4975445;28;20046;-89
2023/12/12 02:00:48;;;;;;;45.45;16.80;;;5.90;99.90;;;;;;4975071;28;20767;-89
2023/12/12 02:03:16;;;;;;;43.75;15.00;;;5.90;99.90;;;;;;4975997;28;20073;-89
2023/12/12 02:05:43;;;;;;;35.03;14.32;;;6.00;99.90;;;;;;4992981;28;20046;-90
2023/12/12 02:08:09;;;;;;;48.03;15.85;;;6.00;99.90;;;;;;4975772;28;20084;-90
2023/12/12 02:10:35;;;;;;;39.70;14.80;;;6.00;99.90;;;;;;4987793;28;20442;-90
2023/12/12 02:13:01;;;;;;;50.00;15.68;;;6.10;99.90;;;;;;4996105;28;20014;-90
2023/12/12 02:15:27;;;;;;;32.92;13.25;;;6.10;99.90;;;;;;4995858;28;20037;-90
2023/12/12 02:17:53;;;;;;;53.83;16.88;;;6.10;99.90;;;;;;4995925;28;20475;-90
2023/12/12 02:20:18;;;;;;;51.10;15.77;;;6.10;99.90;;;;;;4995966;28;20084;-90
2023/12/12 02:22:44;;;;;;;41.03;14.00;;;6.20;99.90;;;;;;4996587;28;20094;-90
2023/12/12 02:25:10;;;;;;;43.00;13.75;;;6.20;99.90;;;;;;4996276;28;20542;-90
2023/12/12 02:27:39;;;;;;;41.40;13.55;;;6.20;99.90;;;;;;4998432;28;20026;-89
2023/12/12 02:30:08;;;;;;;38.85;14.68;;;6.30;99.90;;;;;;5001198;28;20076;-91
2023/12/12 02:32:34;;;;;;;44.85;14.68;;;6.30;99.90;;;;;;5000284;28;20049;-90
2023/12/12 02:35:01;;;;;;;40.25;14.57;;;6.30;99.90;;;;;;4997826;28;20030;-90
2023/12/12 02:37:26;;;;;;;45.67;13.95;;;6.30;99.90;;;;;;4995624;28;20037;-89
2023/12/12 02:39:52;;;;;;;41.08;13.60;;;6.30;99.90;;;;;;4996587;28;20036;-89
2023/12/12 02:42:18;;;;;;;28.40;11.80;;;6.30;99.90;;;;;;4996478;28;20018;-89
2023/12/12 02:44:44;;;;;;;27.50;12.60;;;6.30;99.90;;;;;;4995921;28;20022;-89
2023/12/12 02:47:09;;;;;;;30.52;12.10;;;6.30;99.90;;;;;;4995234;28;20018;-88
2023/12/12 02:49:35;;;;;;;27.00;11.65;;;6.30;99.90;;;;;;4996328;28;20050;-89
2023/12/12 02:52:01;;;;;;;30.70;11.75;;;6.40;99.90;;;;;;4996949;28;20152;-90
2023/12/12 02:54:27;;;;;;;35.55;11.60;;;6.40;99.90;;;;;;4995571;28;20030;-88
2023/12/12 02:56:53;;;;;;;17.02;8.93;;;6.40;99.90;;;;;;4995450;28;20037;-88
2023/12/12 02:59:19;;;;;;;17.70;8.10;;;6.40;99.90;;;;;;4995514;28;20022;-88
2023/12/12 03:01:48;;;;;;;17.50;7.90;;;6.40;99.90;;;;;;4995490;28;20037;-88
2023/12/12 03:04:13;;;;;;;12.18;6.80;;;6.40;99.90;;;;;;4995231;28;20029;-88
2023/12/12 03:06:39;;;;;;;15.15;6.20;;;6.40;99.90;;;;;;4998834;28;20026;-89
2023/12/12 03:09:05;;;;;;;11.63;5.88;;;6.40;99.90;;;;;;4999232;28;20018;-89
2023/12/12 03:11:33;;;;;;;11.10;5.68;;;6.40;99.90;;;;;;4999009;28;20048;-89
2023/12/12 03:14:00;;;;;;;8.85;5.38;;;6.40;99.90;;;;;;4998777;28;20659;-89
2023/12/12 03:16:31;;;;;;;13.77;6.93;;;6.50;99.90;;;;;;4998621;28;20100;-89
2023/12/12 03:18:57;;;;;;;13.27;5.22;;;6.50;99.90;;;;;;4998896;28;20021;-89
2023/12/12 03:21:25;;;;;;;9.23;4.85;;;6.50;99.90;;;;;;4998601;28;20475;-89
2023/12/12 03:23:50;;;;;;;11.55;5.63;;;6.50;99.90;;;;;;4998681;28;20064;-88
2023/12/12 03:26:16;;;;;;;10.23;5.65;;;6.50;99.90;;;;;;4999067;28;20057;-89
2023/12/12 03:28:42;;;;;;;9.82;6.10;;;6.50;99.90;;;;;;5016775;28;20030;-89
2023/12/12 03:31:08;;;;;;;10.57;5.47;;;6.50;99.90;;;;;;4999299;28;20022;-88
2023/12/12 03:33:34;;;;;;;12.38;5.13;;;6.50;99.90;;;;;;4999501;28;20091;-89
2023/12/12 03:35:59;;;;;;;11.02;5.50;;;6.50;99.90;;;;;;5000655;28;20036;-88
2023/12/12 03:38:25;;;;;;;8.55;4.63;;;6.50;99.90;;;;;;5000753;28;20026;-88
2023/12/12 03:40:51;;;;;;;8.68;5.13;;;6.50;99.90;;;;;;5000341;28;20030;-88
2023/12/12 03:43:16;;;;;;;12.02;5.88;;;6.50;99.90;;;;;;5000015;28;20025;-87
2023/12/12 03:45:43;;;;;;;10.80;5.65;;;6.60;99.90;;;;;;4996881;28;20041;-88
2023/12/12 03:48:08;;;;;;;11.27;5.43;;;6.60;99.90;;;;;;4999577;28;20030;-88
2023/12/12 03:50:34;;;;;;;14.55;7.22;;;6.60;99.90;;;;;;4998882;28;20396;-88
2023/12/12 03:53:00;;;;;;;12.23;5.70;;;6.60;99.90;;;;;;4999429;28;20053;-90
2023/12/12 03:55:25;;;;;;;10.40;5.85;;;6.60;99.90;;;;;;5016330;28;20088;-89
2023/12/12 03:57:51;;;;;;;10.55;6.15;;;6.70;99.90;;;;;;4999184;28;20025;-90
2023/12/12 04:00:17;;;;;;;11.65;5.43;;;6.70;99.90;;;;;;4998955;28;20089;-89
2023/12/12 04:02:43;;;;;;;10.88;6.18;;;6.70;99.90;;;;;;4998780;28;20061;-90
2023/12/12 04:05:12;;;;;;;11.93;5.15;;;6.70;99.90;;;;;;5016238;28;20025;-90
2023/12/12 04:07:38;;;;;;;14.20;5.22;;;6.70;99.90;;;;;;4998960;28;20065;-89
2023/12/12 04:10:06;;;;;;;11.60;6.10;;;6.70;99.90;;;;;;4999152;28;20480;-89
2023/12/12 04:12:33;;;;;;;11.63;6.57;;;6.80;99.90;;;;;;5003698;28;20034;-89
2023/12/12 04:14:59;;;;;;;9.77;5.57;;;6.70;99.90;;;;;;5002675;28;20022;-89
2023/12/12 04:17:25;;;;;;;9.88;6.32;;;6.70;99.90;;;;;;4997471;28;20109;-89
2023/12/12 04:19:50;;;;;;;18.30;7.30;;;6.80;99.90;;;;;;4997722;28;20025;-90
2023/12/12 04:22:16;;;;;;;12.02;7.53;;;6.70;99.90;;;;;;4997903;28;20033;-89
2023/12/12 04:24:45;;;;;;;10.85;6.40;;;6.80;99.90;;;;;;5015052;28;20026;-90
2023/12/12 04:27:11;;;;;;;12.70;6.82;;;6.70;99.90;;;;;;5015205;28;20448;-90
2023/12/12 04:29:37;;;;;;;14.43;8.15;;;6.80;99.90;;;;;;4997309;28;20036;-90
2023/12/12 04:32:04;;;;;;;17.15;8.52;;;6.80;99.90;;;;;;5015102;28;20028;-88
2023/12/12 04:34:33;;;;;;;17.10;8.70;;;6.80;99.90;;;;;;5014723;28;20076;-88
2023/12/12 04:37:01;;;;;;;17.85;8.85;;;6.80;99.90;;;;;;4997183;28;20026;-89
2023/12/12 04:39:28;;;;;;;17.35;10.20;;;6.80;99.90;;;;;;5014932;28;20018;-88
2023/12/12 04:41:53;;;;;;;18.52;8.95;;;6.80;99.90;;;;;;4997343;28;20065;-88
2023/12/12 04:44:19;;;;;;;18.65;8.95;;;6.80;99.90;;;;;;4997154;28;20456;-88
2023/12/12 04:46:45;;;;;;;18.27;9.38;;;6.80;99.90;;;;;;5014995;28;20460;-88
2023/12/12 04:49:11;;;;;;;19.50;9.63;;;6.80;99.90;;;;;;5014397;28;20021;-89
2023/12/12 04:51:36;;;;;;;21.95;10.35;;;6.80;99.90;;;;;;5015584;28;20080;-89
2023/12/12 04:54:02;;;;;;;18.25;10.20;;;6.80;99.90;;;;;;5014377;28;20084;-88
2023/12/12 04:56:28;;;;;;;26.75;10.75;;;6.80;99.90;;;;;;4997234;28;20042;-88
2023/12/12 04:58:53;;;;;;;19.40;9.95;;;6.80;99.90;;;;;;4997309;28;20022;-88
2023/12/12 05:01:19;;;;;;;16.13;9.80;;;6.90;99.90;;;;;;4997135;28;20041;-88
2023/12/12 05:03:45;;;;;;;15.23;9.90;;;6.90;99.90;;;;;;4997285;28;20018;-89
2023/12/12 05:06:11;;;;;;;15.35;8.40;;;6.90;99.90;;;;;;4997608;28;20051;-88
2023/12/12 05:08:37;;;;;;;15.07;8.68;;;6.90;99.90;;;;;;5014831;28;20033;-89
2023/12/12 05:11:04;;;;;;;18.33;9.40;;;6.90;99.90;;;;;;5000358;28;20495;-89
2023/12/12 05:13:30;;;;;;;22.40;10.90;;;6.90;99.90;;;;;;5003953;28;20025;-89
2023/12/12 05:15:56;;;;;;;22.40;12.07;;;6.90;99.90;;;;;;5002004;28;20419;-88
2023/12/12 05:18:21;;;;;;;25.98;12.82;;;7.00;99.90;;;;;;4993905;28;20018;-89
2023/12/12 05:20:48;;;;;;;24.52;12.45;;;6.90;99.90;;;;;;4996234;28;20021;-89
2023/12/12 05:23:13;;;;;;;33.17;13.45;;;7.00;99.90;;;;;;5013861;28;20475;-88
2023/12/12 05:25:42;;;;;;;31.92;12.73;;;7.00;99.90;;;;;;5013447;28;20033;-87
2023/12/12 05:28:08;;;;;;;35.15;13.57;;;7.00;99.90;;;;;;4995948;28;20164;-88
2023/12/12 05:30:34;;;;;;;28.00;13.10;;;7.00;99.90;;;;;;4996141;28;20108;-88
2023/12/12 05:33:00;;;;;;;32.75;13.60;;;7.10;99.90;;;;;;5010247;28;20100;-87
2023/12/12 05:35:26;;;;;;;23.38;11.43;;;7.10;99.90;;;;;;5013410;28;20038;-88
2023/12/12 05:37:51;;;;;;;27.20;14.00;;;7.10;99.90;;;;;;4996287;28;20399;-89
2023/12/12 05:40:17;;;;;;;28.90;14.68;;;7.10;99.90;;;;;;4996178;28;20118;-88
2023/12/12 05:42:43;;;;;;;37.40;14.68;;;7.20;99.90;;;;;;4996114;28;20108;-89
2023/12/12 05:45:09;;;;;;;30.27;13.75;;;7.20;99.90;;;;;;5013387;28;20427;-89
2023/12/12 05:47:35;;;;;;;31.85;14.52;;;7.20;99.90;;;;;;5013129;28;20037;-89
2023/12/12 05:50:02;;;;;;;25.50;12.73;;;7.20;99.90;;;;;;4996606;28;20072;-88
2023/12/12 05:52:28;;;;;;;21.00;10.98;;;7.20;99.90;;;;;;4996532;28;20030;-89
2023/12/12 05:54:54;;;;;;;28.08;14.15;;;7.20;99.90;;;;;;4996395;28;20042;-89
2023/12/12 05:57:20;;;;;;;21.52;12.07;;;7.20;99.90;;;;;;4996535;28;20069;-88
2023/12/12 05:59:46;;;;;;;27.95;14.27;;;7.20;99.90;;;;;;4996797;28;20033;-89
2023/12/12 06:02:12;;;;;;;27.27;13.68;;;7.20;99.90;;;;;;5014402;28;20028;-88
2023/12/12 06:04:38;;;;;;;32.22;14.45;;;7.20;99.90;;;;;;4995998;28;20086;-89
2023/12/12 06:07:05;;;;;;;35.72;14.88;;;7.20;99.90;;;;;;4995756;28;20117;-89
2023/12/12 06:09:31;;;;;;;27.77;13.13;;;7.20;99.90;;;;;;4995580;28;20046;-89
2023/12/12 06:11:57;;;;;;;34.72;15.70;;;7.20;99.90;;;;;;5013369;28;20442;-90
2023/12/12 06:14:23;;;;;;;30.33;13.52;;;7.20;99.90;;;;;;5013227;28;20022;-90
2023/12/12 06:16:49;;;;;;;41.40;15.57;;;7.20;99.90;;;;;;4995362;28;20391;-89
2023/12/12 06:19:14;;;;;;;34.33;11.57;;;7.20;99.90;;;;;;4995898;28;20398;-89
2023/12/12 06:21:40;;;;;;;35.45;13.48;;;7.20;99.90;;;;;;5012933;28;20529;-89
2023/12/12 06:24:07;;;;;;;29.05;12.65;;;7.20;99.90;;;;;;5013179;28;20022;-89
2023/12/12 06:26:33;;;;;;;32.92;13.45;;;7.20;99.90;;;;;;4995790;28;20121;-89
2023/12/12 06:28:59;;;;;;;34.55;13.60;;;7.20;99.90;;;;;;4995441;28;20479;-89
2023/12/12 06:31:25;;;;;;;37.28;13.27;;;7.20;99.90;;;;;;4995328;28;20033;-89
2023/12/12 06:33:52;;;;;;;33.20;13.57;;;7.20;99.90;;;;;;4995656;28;20020;-89
2023/12/12 06:36:18;;;;;;;38.65;13.73;;;7.20;99.90;;;;;;4995468;28;20045;-89
2023/12/12 06:38:44;;;;;;;32.85;13.07;;;7.20;99.90;;;;;;5014257;28;20018;-89
2023/12/12 06:41:09;;;;;;;34.53;13.25;;;7.20;99.90;;;;;;4999760;28;20022;-88
2023/12/12 06:43:35;;;;;;;35.97;12.80;;;7.20;99.90;;;;;;5017177;28;20022;-89
2023/12/12 06:46:02;;;;;;;42.40;14.63;;;7.30;99.90;;;;;;4998647;28;20042;-88
2023/12/12 06:48:28;;;;;;;44.00;14.32;;;7.30;99.90;;;;;;5000154;28;20044;-88
2023/12/12 06:50:53;;;;;;;46.67;14.63;;;7.30;99.90;;;;;;5018067;28;20018;-88
2023/12/12 06:53:19;;;;;;;39.63;14.00;;;7.30;99.90;;;;;;5000374;28;20025;-89
2023/12/12 06:55:47;;;;;;;56.05;17.13;;;7.30;99.90;;;;;;5017978;28;20118;-90
2023/12/12 06:58:15;;;;;;;46.05;13.45;;;7.30;99.90;;;;;;4999848;28;20117;-90
2023/12/12 07:00:42;;;;;;;33.90;11.48;;;7.30;99.90;;;;;;4998710;28;20033;-89
2023/12/12 07:03:11;;;;;;;43.03;12.45;;;7.30;99.90;;;;;;4999229;28;20076;-88
2023/12/12 07:05:37;;;;;;;36.75;12.70;;;7.30;99.90;;;;;;4995773;28;20117;-88
2023/12/12 07:08:04;;;;;;;39.30;12.02;;;7.30;99.90;;;;;;5013533;28;20030;-87
2023/12/12 07:10:33;;;;;;;39.97;11.73;;;7.30;99.90;;;;;;5015152;28;20081;-88
2023/12/12 07:12:59;;;;;;;39.15;12.13;;;7.30;99.90;;;;;;5013112;28;20408;-88
2023/12/12 07:15:28;;;;;;;44.40;12.43;;;7.30;99.90;;;;;;4998004;28;20045;-88
2023/12/12 07:17:54;;;;;;;42.15;12.50;;;7.30;99.90;;;;;;5015774;28;20028;-87
2023/12/12 07:20:21;;;;;;;48.92;13.02;;;7.30;99.90;;;;;;4998401;28;20061;-88
2023/12/12 07:22:47;;;;;;;36.00;11.38;;;7.30;99.90;;;;;;4999263;28;20439;-87
2023/12/12 07:25:13;;;;;;;34.00;11.68;;;7.40;99.90;;;;;;5016956;28;20014;-89
2023/12/12 07:27:39;;;;;;;29.25;10.77;;;7.40;99.90;;;;;;5015898;28;20057;-87
2023/12/12 07:30:05;;;;;;;34.63;10.57;;;7.40;99.90;;;;;;5016224;28;20083;-87
2023/12/12 07:32:31;;;;;;;36.58;10.50;;;7.50;99.90;;;;;;4998714;28;20029;-88
2023/12/12 07:34:56;;;;;;;37.15;10.70;;;7.50;99.90;;;;;;4998521;28;20041;-87
2023/12/12 07:37:22;;;;;;;39.20;10.93;;;7.50;99.90;;;;;;5015449;28;20038;-88
2023/12/12 07:39:48;;;;;;;38.13;12.05;;;7.60;99.90;;;;;;5016854;28;20471;-88
2023/12/12 07:42:13;;;;;;;45.70;13.98;;;7.60;99.90;;;;;;5015980;28;20026;-88
2023/12/12 07:44:39;;;;;;;43.15;13.05;;;7.60;99.90;;;;;;4996625;28;20109;-88
2023/12/12 07:47:06;;;;;;;39.33;11.68;;;7.70;99.90;;;;;;4998580;28;20029;-88
2023/12/12 07:49:32;;;;;;;42.50;11.95;;;7.60;99.90;;;;;;4997190;28;20026;-88
2023/12/12 07:51:58;;;;;;;46.20;13.32;;;7.70;99.90;;;;;;5015479;28;20494;-89
2023/12/12 07:54:23;;;;;;;49.10;13.55;;;7.60;99.90;;;;;;5003952;28;20115;-87
2023/12/12 07:56:49;;;;;;;39.75;11.75;;;7.60;99.90;;;;;;5025650;28;20036;-89
2023/12/12 07:59:15;;;;;;;44.15;13.15;;;7.60;99.90;;;;;;5023952;28;20021;-88
2023/12/12 08:01:40;;;;;;;45.60;14.20;;;7.60;99.90;;;;;;5003642;28;20030;-88
2023/12/12 08:04:06;;;;;;;40.65;12.82;;;7.70;99.90;;;;;;4999292;28;20392;-89
2023/12/12 08:06:32;;;;;;;38.92;12.43;;;7.60;99.90;;;;;;4998668;28;20093;-89
2023/12/12 08:09:02;;;;;;;39.20;12.00;;;7.70;99.90;;;;;;4998563;28;20441;-88
2023/12/12 08:11:28;;;;;;;46.70;12.40;;;7.70;99.90;;;;;;4996598;28;20050;-89
2023/12/12 08:13:54;;;;;;;40.30;12.90;;;7.70;99.90;;;;;;4997678;28;20738;-89
2023/12/12 08:16:21;;;;;;;43.55;12.55;;;7.80;99.90;;;;;;4998044;28;20058;-88
2023/12/12 08:18:46;;;;;;;39.55;11.82;;;7.80;99.90;;;;;;4981091;28;20057;-89
2023/12/12 08:21:12;;;;;;;43.67;12.95;;;7.80;99.90;;;;;;4976798;28;20062;-89
2023/12/12 08:23:41;;;;;;;36.63;11.40;;;7.80;99.90;;;;;;4974611;28;20034;-89
2023/12/12 08:26:07;;;;;;;40.97;12.25;;;7.80;99.90;;;;;;4975963;28;20284;-89
2023/12/12 08:28:33;;;;;;;36.47;12.07;;;7.90;99.90;;;;;;4977002;28;20029;-89
2023/12/12 08:31:01;;;;;;;41.33;13.00;;;7.90;99.90;;;;;;4974159;28;20022;-89
2023/12/12 08:33:27;;;;;;;33.40;11.23;;;7.90;99.90;;;;;;4999741;28;20594;-89
2023/12/12 08:35:53;;;;;;;33.33;11.40;;;7.90;99.90;;;;;;4995504;28;20109;-88
2023/12/12 08:38:19;;;;;;;35.40;11.60;;;7.90;99.90;;;;;;4977830;28;20032;-89
2023/12/12 08:40:44;;;;;;;41.88;12.20;;;7.90;99.90;;;;;;4977632;28;20026;-89
2023/12/12 08:43:10;;;;;;;27.38;10.00;;;7.90;99.90;;;;;;4977550;28;20034;-88
2023/12/12 08:45:36;;;;;;;39.08;11.13;;;7.90;99.90;;;;;;4977491;28;20030;-89
2023/12/12 08:48:02;;;;;;;40.15;11.25;;;7.90;99.90;;;;;;4994089;28;20065;-88
2023/12/12 08:50:28;;;;;;;36.42;11.32;;;7.90;99.90;;;;;;4977148;28;20022;-88
2023/12/12 08:52:53;;;;;;;42.72;12.00;;;7.90;99.90;;;;;;4977408;28;20096;-89
2023/12/12 08:55:19;;;;;;;49.40;12.57;;;7.90;99.90;;;;;;4976542;28;20025;-88
2023/12/12 08:57:46;;;;;;;29.85;10.77;;;7.90;99.90;;;;;;4977395;28;20042;-88
2023/12/12 09:00:12;;;;;;;55.45;12.30;;;7.90;99.90;;;;;;4978019;28;20022;-88
2023/12/12 09:02:39;;;;;;;38.25;12.10;;;7.90;99.90;;;;;;4976241;28;20029;-88
2023/12/12 09:05:06;;;;;;;41.20;11.25;;;7.90;99.90;;;;;;4976744;28;20029;-89
2023/12/12 09:07:33;;;;;;;38.33;11.73;;;7.90;99.90;;;;;;4977321;28;20085;-87
2023/12/12 09:10:03;;;;;;;46.35;12.07;;;7.90;99.90;;;;;;4977386;28;20100;-88
2023/12/12 09:12:28;;;;;;;49.97;12.38;;;7.90;99.90;;;;;;4958341;28;20026;-90
2023/12/12 09:14:55;;;;;;;44.03;11.77;;;7.90;99.90;;;;;;4959274;28;20049;-87
2023/12/12 09:17:20;;;;;;;41.97;12.15;;;7.90;99.90;;;;;;4959100;28;20039;-88
2023/12/12 09:19:46;;;;;;;55.10;13.45;;;7.90;99.90;;;;;;4958868;28;20130;-88
2023/12/12 09:22:12;;;;;;;46.88;11.80;;;7.90;99.90;;;;;;4957817;28;20027;-88
2023/12/12 09:24:38;;;;;;;41.38;11.60;;;7.90;99.90;;;;;;4975396;28;20480;-88
2023/12/12 09:27:04;;;;;;;39.97;10.75;;;7.90;99.90;;;;;;4974212;28;20068;-88
2023/12/12 09:29:30;;;;;;;44.15;12.40;;;7.90;99.90;;;;;;4977773;28;20030;-87
2023/12/12 09:31:57;;;;;;;55.67;12.48;;;7.90;99.90;;;;;;4993946;28;20460;-89
2023/12/12 09:34:26;;;;;;;47.83;13.35;;;7.90;99.90;;;;;;4976982;28;20034;-89
2023/12/12 09:36:52;;;;;;;49.00;13.95;;;7.90;99.90;;;;;;4974413;28;20034;-89
2023/12/12 09:39:18;;;;;;;42.88;11.85;;;7.90;99.90;;;;;;4994001;28;20053;-89
2023/12/12 09:41:49;;;;;;;47.65;12.40;;;7.90;99.90;;;;;;4977332;28;20403;-90
2023/12/12 09:44:17;;;;;;;41.70;12.30;;;7.90;99.90;;;;;;4994573;28;20018;-90
2023/12/12 09:46:47;;;;;;;45.42;11.57;;;7.90;99.90;;;;;;4977039;28;20057;-90
2023/12/12 09:49:14;;;;;;;45.15;11.65;;;7.90;99.90;;;;;;4978149;28;20550;-90
2023/12/12 09:51:41;;;;;;;52.50;13.18;;;8.00;99.90;;;;;;4977697;28;20023;-89
2023/12/12 09:54:10;;;;;;;41.83;11.85;;;8.00;99.90;;;;;;4995016;28;20032;-91
2023/12/12 09:56:37;;;;;;;42.08;12.77;;;8.00;99.90;;;;;;4995096;28;20046;-88
2023/12/12 09:59:03;;;;;;;37.42;11.00;;;8.00;99.90;;;;;;4978216;28;20034;-89
2023/12/12 10:01:33;;;;;;;42.47;11.63;;;8.00;99.90;;;;;;4977248;28;20038;-89
2023/12/12 10:04:02;;;;;;;43.75;11.98;;;8.10;99.90;;;;;;4974650;28;20023;-90
2023/12/12 10:06:30;;;;;;;51.08;11.82;;;8.10;99.90;;;;;;4992561;28;20038;-90
2023/12/12 10:08:57;;;;;;;48.38;11.90;;;8.20;99.90;;;;;;4976286;28;20023;-89
2023/12/12 10:11:23;;;;;;;43.25;12.00;;;8.30;99.90;;;;;;4993582;28;20121;-91
2023/12/12 10:13:56;;;;;;;40.50;11.50;;;8.30;99.90;;;;;;4976388;28;20114;-90
2023/12/12 10:16:22;;;;;;;36.78;9.75;;;8.40;99.90;;;;;;4976115;28;20038;-89
2023/12/12 10:18:50;;;;;;;41.60;10.88;;;8.40;99.90;;;;;;4976148;28;20034;-90
2023/12/12 10:21:17;;;;;;;46.47;11.60;;;8.40;99.90;;;;;;4975930;28;20029;-89
2023/12/12 10:23:47;;;;;;;50.00;12.80;;;8.40;99.90;;;;;;4993796;28;20037;-89
2023/12/12 10:26:14;;;;;;;44.22;10.98;;;8.50;99.90;;;;;;4960253;28;20030;-88
2023/12/12 10:28:41;;;;;;;49.90;13.40;;;8.50;99.90;;;;;;4996198;28;20046;-88
2023/12/12 10:31:08;;;;;;;42.47;11.52;;;8.50;99.90;;;;;;4999004;28;20027;-88
2023/12/12 10:33:38;;;;;;;45.15;11.07;;;8.50;99.90;;;;;;4991529;28;20029;-89
2023/12/12 10:36:08;;;;;;;44.83;12.40;;;8.50;99.90;;;;;;4974417;28;20082;-88
2023/12/12 10:38:35;;;;;;;49.53;11.67;;;8.50;99.90;;;;;;4976256;28;20023;-88
2023/12/12 10:41:15;;;;;;;46.17;14.50;;;8.50;99.90;;;;;;4977534;28;20034;-86
2023/12/12 10:43:42;;;;;;;47.47;12.38;;;8.50;99.90;;;;;;4978868;28;20073;-88
2023/12/12 10:46:11;;;;;;;37.38;10.85;;;8.50;99.90;;;;;;4993885;28;20052;-89
2023/12/12 10:48:52;;;;;;;47.67;11.55;;;8.50;99.90;;;;;;4994371;28;20030;-88
2023/12/12 10:51:19;;;;;;;41.60;11.25;;;8.50;99.90;;;;;;4989320;28;20031;-89
2023/12/12 10:53:46;;;;;;;45.75;13.00;;;8.50;99.90;;;;;;4992633;28;20068;-90
2023/12/12 10:56:13;;;;;;;37.75;11.38;;;8.50;99.90;;;;;;4970620;28;20031;-89
2023/12/12 10:58:41;;;;;;;43.15;11.48;;;8.50;99.90;;;;;;4971911;28;20116;-88
2023/12/12 11:01:08;;;;;;;43.83;12.00;;;8.40;99.90;;;;;;4982290;28;20015;-90
2023/12/12 11:03:36;;;;;;;45.90;12.30;;;8.50;99.90;;;;;;4956373;28;20061;-90
2023/12/12 11:06:05;;;;;;;42.53;11.00;;;8.50;99.90;;;;;;4976896;28;20464;-89
2023/12/12 11:08:32;;;;;;;36.95;10.90;;;8.50;99.90;;;;;;4974891;28;20054;-90
2023/12/12 11:11:12;;;;;;;47.67;10.82;;;8.50;99.90;;;;;;4990531;28;20059;-90
2023/12/12 11:13:39;;;;;;;;;;;8.50;99.90;;;;;;5002741;28;20050;-89
2023/12/12 11:16:07;;;;;;;46.95;10.35;;;8.50;99.90;;;;;;5002073;28;19920;-90
2023/12/12 11:18:37;;;;;;;41.22;11.52;;;8.50;99.90;;;;;;4998677;28;20030;-90
2023/12/12 11:21:03;;;;;;;32.70;10.15;;;8.50;99.90;;;;;;4997908;28;20077;-90
2023/12/12 11:23:53;;;;;;;44.70;11.38;;;8.50;99.90;;;;;;5015189;28;20032;-90
2023/12/12 11:26:20;;;;;;;45.08;9.93;;;8.50;99.90;;;;;;4998301;28;20032;-90
2023/12/12 11:28:48;;;;;;;36.83;9.10;;;8.50;99.90;;;;;;5017532;28;20054;-90
2023/12/12 11:31:24;;;;;;;34.67;10.77;;;8.50;99.90;;;;;;4999509;28;20032;-90
2023/12/12 11:34:15;;;;;;;33.42;8.93;;;8.50;99.90;;;;;;4994848;28;20037;-90
2023/12/12 11:36:51;;;;;;;;;;;8.40;99.90;;;;;;5003226;28;20057;-90
2023/12/12 11:39:30;;;;;;;26.92;7.65;;;8.40;99.90;;;;;;4987958;28;20334;-90
2023/12/12 11:42:02;;;;;;;28.25;7.70;;;8.40;99.90;;;;;;5012244;28;20034;-90
2023/12/12 11:44:58;;;;;;;23.90;7.68;;;8.40;99.90;;;;;;4997696;28;20169;-90
2023/12/12 11:47:29;;;;;;;16.95;6.55;;;8.40;99.90;;;;;;4993399;28;20472;-89
2023/12/12 11:50:19;;;;;;;26.10;6.88;;;8.40;99.90;;;;;;4991408;28;20040;-90
2023/12/12 11:52:45;;;;;;;23.00;6.53;;;8.40;99.90;;;;;;4997994;28;20083;-90
2023/12/12 11:55:19;;;;;;;15.70;5.38;;;8.40;99.90;;;;;;5015372;28;20040;-90
2023/12/12 11:57:45;;;;;;;18.00;6.07;;;8.40;99.90;;;;;;5013537;28;20065;-90
2023/12/12 12:00:20;;;;;;;20.33;5.22;;;8.40;99.90;;;;;;4981138;28;20386;-90
2023/12/12 12:02:46;;;;;;;16.90;5.90;;;8.40;99.90;;;;;;5013634;28;20028;-91
2023/12/12 12:05:12;;;;;;;19.30;5.53;;;8.40;99.90;;;;;;4997103;28;20022;-90
2023/12/12 12:07:38;;;;;;;16.25;5.20;;;8.40;99.90;;;;;;4996623;28;20032;-90
2023/12/12 12:10:08;;;;;;;15.88;4.90;;;8.40;99.90;;;;;;5006005;28;20070;-91
2023/12/12 12:12:34;;;;;;;12.32;3.80;;;8.40;99.90;;;;;;4977055;28;20054;-90
2023/12/12 12:15:05;;;;;;;10.95;3.75;;;8.50;99.90;;;;;;4994384;28;20056;-90
2023/12/12 12:17:35;;;;;;;11.63;4.22;;;8.50;99.90;;;;;;4973113;28;20524;-90
2023/12/12 12:20:02;;;;;;;11.53;3.47;;;8.60;99.90;;;;;;4994550;28;21648;-91
2023/12/12 12:22:27;;;;;;;6.72;2.60;;;8.80;99.90;;;;;;4977357;28;20270;-90
2023/12/12 12:24:53;;;;;;;6.75;2.63;;;8.90;99.90;;;;;;4977597;28;20467;-90
2023/12/12 12:27:19;;;;;;;7.63;2.40;;;8.90;99.90;;;;;;4974835;28;20459;-90
2023/12/12 12:30:03;;;;;;;8.02;3.20;;;9.00;99.90;;;;;;4993185;28;20464;-90
2023/12/12 12:32:28;;;;;;;10.80;3.08;;;9.00;99.90;;;;;;4976851;28;20050;-89
2023/12/12 12:35:10;;;;;;;10.05;3.70;;;9.00;99.90;;;;;;4994297;28;20080;-90
2023/12/12 12:37:37;;;;;;;16.10;4.40;;;9.10;99.90;;;;;;4993795;28;20034;-90
2023/12/12 12:40:05;;;;;;;13.10;4.40;;;9.10;99.90;;;;;;4978353;28;20042;-89